Midland, North Carolina
Current Conditions -  °F | °C
As of 12:53 AM on Wednesday 28 Jan 2015 (Local Time) from KEQY Reporting Station
Clear Clear  
Wind Chill: 32°   Ceiling: Unl
Heat Index: 32°   Visibility: 10mi
Dew Point: 19°   Wind: 0mph
Humidity: 59%   Direction: NA
Pressure: 30.03"   Gusts: NA
Location:  35.23°N, 80.5°W
Report Text: KEQY 280553Z AUTO 00000KT 10SM CLR 00/M07 A3003 RMK AO2 SLP187 T00001072 10056 20000 51015
Loading
Personal Weather Stations






























Interactive Weather Map New forecast layout! Learn more

10-Day Weather Forecast

Advertisements
Track Severe Weather on mobile